Time;durP1;ratioP1;P1;durP2;ratioP2;P2;SDS_P1;SDS_P2;PMS_P1;PMS_P2;Temp;Humidity;BMP_temperature;BMP_pressure;BME280_temperature;BME280_humidity;BME280_pressure;Samples;Min_cycle;Max_cycle;Signal;HPM_P1;HPM_P2
2023/01/25 00:00:14;;;;;;;23.30;7.10;;;;;;;16.78;59.30;99598.91;2069848;28;19928;-52
2023/01/25 00:01:16;;;;;;;19.23;7.13;;;;;;;16.80;59.13;99600.44;2061785;28;20117;-48
2023/01/25 00:02:17;;;;;;;23.30;6.97;;;;;;;16.83;58.95;99601.94;2065525;28;20072;-54
2023/01/25 00:03:20;;;;;;;;;;;;;;;16.71;59.30;99596.84;2062146;28;20442;-50
2023/01/25 00:04:22;;;;;;;16.95;6.85;;;;;;;16.77;59.22;99605.25;2065151;28;20024;-52
2023/01/25 00:05:23;;;;;;;29.75;8.77;;;;;;;16.80;59.11;99604.91;2053441;28;20060;-54
2023/01/25 00:06:24;;;;;;;20.15;8.13;;;;;;;16.80;59.02;99602.25;2061323;28;20042;-54
2023/01/25 00:07:26;;;;;;;;;;;;;;;16.70;59.42;99603.22;2062646;28;20127;-53
2023/01/25 00:08:27;;;;;;;20.52;7.80;;;;;;;16.71;59.29;99601.38;2056462;28;19968;-52
2023/01/25 00:09:28;;;;;;;16.27;7.40;;;;;;;16.75;59.19;99603.56;2064025;28;20189;-52
2023/01/25 00:10:29;;;;;;;18.48;8.20;;;;;;;16.78;59.03;99599.75;2063175;28;20062;-51
2023/01/25 00:11:31;;;;;;;;;;;;;;;16.67;59.24;99600.88;2061456;28;20065;-51
2023/01/25 00:12:31;;;;;;;19.25;6.45;;;;;;;16.69;59.31;99590.84;2053148;28;19925;-50
2023/01/25 00:13:33;;;;;;;;;;;;;;;16.61;59.36;99595.38;2061443;28;20074;-48
2023/01/25 00:14:33;;;;;;;18.48;6.38;;;;;;;16.64;59.45;99595.88;2059959;28;20326;-50
2023/01/25 00:15:35;;;;;;;;;;;;;;;16.56;59.52;99587.81;2062300;28;20053;-54
2023/01/25 00:16:36;;;;;;;14.70;7.35;;;;;;;16.62;59.49;99589.00;2061584;28;19967;-55
2023/01/25 00:17:37;;;;;;;17.17;7.03;;;;;;;16.67;59.23;99590.16;2064409;28;20049;-48
2023/01/25 00:18:39;;;;;;;15.40;6.50;;;;;;;16.69;59.25;99585.50;2060238;28;20875;-50
2023/01/25 00:19:41;;;;;;;15.10;6.32;;;;;;;16.70;59.15;99589.84;2062336;28;20168;-48
2023/01/25 00:20:42;;;;;;;16.77;6.57;;;;;;;16.71;59.05;99583.47;2061464;28;20054;-52
2023/01/25 00:21:43;;;;;;;;;;;;;;;16.58;59.34;99588.50;2062401;28;20104;-48
2023/01/25 00:22:44;;;;;;;17.42;7.60;;;;;;;16.59;59.46;99590.16;2061453;28;19929;-51
2023/01/25 00:23:45;;;;;;;;;;;;;;;16.52;59.54;99592.69;2061281;28;20074;-50
2023/01/25 00:24:46;;;;;;;16.25;7.65;;;;;;;16.57;59.42;99585.97;2062031;28;19932;-51
2023/01/25 00:25:47;;;;;;;;;;;;;;;16.49;59.59;99590.34;2062196;28;20105;-54
2023/01/25 00:26:48;;;;;;;18.92;7.80;;;;;;;16.52;59.57;99579.31;2060324;28;19978;-51
2023/01/25 00:27:49;;;;;;;;;;;;;;;16.42;59.73;99588.50;2061590;28;20134;-50
2023/01/25 00:28:51;;;;;;;15.65;6.65;;;;;;;16.50;59.53;99578.63;2056978;28;19929;-49
2023/01/25 00:29:53;;;;;;;16.70;6.53;;;;;;;16.56;59.36;99584.31;2060650;28;20053;-50
2023/01/25 00:30:58;;;;;;;18.27;7.15;;;;;;;16.56;59.28;99582.47;2057273;28;20049;-48
2023/01/25 00:32:28;;;;;;;16.73;7.68;;;;;;;16.57;59.11;99578.78;2059046;28;20061;-52
2023/01/25 00:33:38;;;;;;;20.90;7.65;;;;;;;16.53;59.40;99580.13;2062756;28;20065;-51
2023/01/25 00:34:47;;;;;;;16.95;8.55;;;;;;;16.51;59.37;99582.13;2062082;28;20077;-49
2023/01/25 00:35:48;;;;;;;17.90;7.15;;;;;;;16.52;59.35;99583.81;2063441;28;20778;-51
2023/01/25 00:36:51;;;;;;;17.60;6.70;;;;;;;16.54;59.32;99581.78;2062073;28;21395;-54
2023/01/25 00:37:52;;;;;;;15.98;6.97;;;;;;;16.53;59.34;99580.97;2061511;28;20054;-52
2023/01/25 00:38:55;;;;;;;25.77;7.15;;;;;;;16.52;59.22;99579.31;2058667;28;21701;-51
2023/01/25 00:39:55;;;;;;;16.48;7.55;;;;;;;16.54;59.11;99576.44;2051367;28;21336;-52
2023/01/25 00:40:57;;;;;;;;;;;;;;;16.40;59.48;99582.47;2060339;28;20054;-52
2023/01/25 00:41:58;;;;;;;22.05;8.27;;;;;;;16.42;59.65;99575.09;2060352;28;19925;-51
2023/01/25 00:43:00;;;;;;;;;;;;;;;16.33;59.72;99581.47;2061341;28;20401;-53
2023/01/25 00:44:01;;;;;;;12.80;6.63;;;;;;;16.39;59.64;99578.13;2059900;28;20307;-53
2023/01/25 00:45:02;;;;;;;;;;;;;;;16.31;59.73;99582.44;2061377;28;20045;-54
2023/01/25 00:46:03;;;;;;;17.92;6.93;;;;;;;16.37;59.74;99580.13;2063572;28;20363;-49
2023/01/25 00:47:05;;;;;;;;;;;;;;;16.29;59.83;99583.63;2065013;28;20061;-52
2023/01/25 00:48:05;;;;;;;;;;;;;;;16.22;60.02;99575.41;2061933;28;19927;-50
2023/01/25 00:49:19;;;;;;;15.33;6.97;;;;;;;16.29;59.78;99576.41;2061718;28;19984;-48
2023/01/25 00:50:22;;;;;;;18.98;6.30;;;;;;;16.35;59.58;99576.75;2061816;28;20355;-51
2023/01/25 00:51:23;;;;;;;18.73;7.32;;;;;;;16.39;59.52;99584.31;2059165;28;20112;-53
2023/01/25 00:52:26;;;;;;;17.13;7.43;;;;;;;16.41;59.41;99576.09;2062013;28;20130;-50
2023/01/25 00:53:27;;;;;;;11.65;6.22;;;;;;;16.40;59.38;99583.28;2060766;28;20072;-53
2023/01/25 00:54:28;;;;;;;;;;;;;;;16.29;59.56;99579.09;2052778;28;20053;-52
2023/01/25 00:55:30;;;;;;;25.27;7.60;;;;;;;16.32;59.61;99583.28;2059262;28;19936;-53
2023/01/25 00:56:31;;;;;;;11.20;6.10;;;;;;;16.36;59.38;99579.28;2062038;28;20053;-52
2023/01/25 00:57:32;;;;;;;;;;;;;;;16.27;59.65;99580.28;2062784;28;20049;-48
2023/01/25 00:58:33;;;;;;;13.85;6.05;;;;;;;16.29;59.64;99576.41;2060442;28;19937;-54
2023/01/25 00:59:34;;;;;;;;;;;;;;;16.21;59.77;99581.75;2063129;28;20049;-50
2023/01/25 01:00:35;;;;;;;13.27;6.65;;;;;;;16.25;59.78;99580.44;2064328;28;20383;-49
2023/01/25 01:01:36;;;;;;;;;;;;;;;16.17;59.89;99580.44;2062849;28;20049;-52
2023/01/25 01:02:37;;;;;;;13.98;6.05;;;;;;;16.19;59.96;99578.44;2062203;28;20615;-51
2023/01/25 01:03:38;;;;;;;;;;;;;;;16.11;59.95;99589.13;2064578;28;20057;-52
2023/01/25 01:04:39;;;;;;;20.75;7.38;;;;;;;16.18;59.93;99584.75;2061143;28;19999;-54
2023/01/25 01:05:42;;;;;;;;;;;;;;;16.08;60.04;99578.75;2062620;28;20570;-49
2023/01/25 01:06:43;;;;;;;21.65;7.55;;;;;;;16.18;59.89;99586.63;2061872;28;20024;-54
2023/01/25 01:07:44;;;;;;;;;;;;;;;16.08;60.05;99582.25;2061833;28;20516;-50
2023/01/25 01:08:45;;;;;;;16.00;6.55;;;;;;;16.13;59.94;99580.91;2059370;28;19928;-54
2023/01/25 01:09:46;;;;;;;;;;;;;;;16.07;59.96;99583.25;2058768;28;20057;-53
2023/01/25 01:10:47;;;;;;;14.55;6.03;;;;;;;16.13;59.85;99589.81;2064856;28;19932;-48
2023/01/25 01:11:48;;;;;;;;;;;;;;;16.02;60.09;99579.41;2064681;28;20053;-53
2023/01/25 01:12:51;;;;;;;12.13;6.65;;;;;;;16.08;59.86;99584.09;2054110;28;19979;-50
2023/01/25 01:13:51;;;;;;;17.77;6.85;;;;;;;16.12;59.95;99574.72;2060497;28;20053;-51
2023/01/25 01:14:53;;;;;;;;;;;;;;;16.02;60.07;99579.41;2062392;28;20049;-50
2023/01/25 01:15:54;;;;;;;19.70;6.75;;;;;;;16.06;59.89;99576.22;2057825;28;20442;-53
2023/01/25 01:16:55;;;;;;;;;;;;;;;15.96;60.18;99577.34;2063429;28;20042;-50
2023/01/25 01:17:56;;;;;;;18.10;7.15;;;;;;;16.01;60.36;99581.22;2061374;28;19929;-50
2023/01/25 01:18:57;;;;;;;;;;;;;;;15.95;60.19;99578.38;2066744;28;20053;-53
2023/01/25 01:19:59;;;;;;;18.63;6.75;;;;;;;16.00;60.14;99573.38;2060870;28;19921;-52
2023/01/25 01:21:02;;;;;;;16.90;6.82;;;;;;;16.06;59.92;99572.72;2059514;28;20148;-51
2023/01/25 01:22:02;;;;;;;16.90;6.68;;;;;;;16.07;59.76;99574.38;2060398;28;20058;-51
2023/01/25 01:23:04;;;;;;;;;;;;;;;15.98;60.12;99570.00;2060304;28;20054;-52
2023/01/25 01:24:05;;;;;;;21.20;6.57;;;;;;;16.00;60.04;99573.38;2063803;28;20374;-54
2023/01/25 01:25:09;;;;;;;16.98;6.38;;;;;;;16.02;60.04;99564.19;2062741;28;20050;-49
2023/01/25 01:26:12;;;;;;;14.90;7.03;;;;;;;16.03;59.86;99565.84;2063092;28;20181;-51
2023/01/25 01:27:14;;;;;;;14.93;6.88;;;;;;;16.07;59.73;99571.69;2064609;28;20257;-51
2023/01/25 01:28:14;;;;;;;11.82;6.07;;;;;;;16.05;59.74;99571.88;2061774;28;20072;-55
2023/01/25 01:29:16;;;;;;;;;;;;;;;15.95;60.05;99565.00;2061117;28;20053;-54
2023/01/25 01:30:16;;;;;;;12.27;4.80;;;;;;;15.97;60.00;99563.84;2063408;28;19926;-51
2023/01/25 01:31:19;;;;;;;;;;;;;;;15.90;60.18;99567.31;2053689;28;20575;-54
2023/01/25 01:32:20;;;;;;;13.48;6.15;;;;;;;15.91;60.11;99559.13;2062702;28;19924;-51
2023/01/25 01:33:21;;;;;;;;;;;;;;;15.83;60.33;99559.94;2064311;28;20061;-52
2023/01/25 01:34:23;;;;;;;16.65;6.80;;;;;;;15.90;60.17;99559.28;2066018;28;20028;-50
2023/01/25 01:35:23;;;;;;;11.82;5.55;;;;;;;15.93;60.09;99558.97;2064516;28;20102;-53
2023/01/25 01:36:28;;;;;;;;;;;;;;;15.84;60.23;99563.47;2067140;28;20053;-49
2023/01/25 01:37:29;;;;;;;12.48;6.57;;;;;;;15.88;60.08;99559.47;2061621;28;20051;-53
2023/01/25 01:38:32;;;;;;;11.13;6.32;;;;;;;15.92;60.04;99559.97;2061527;28;20050;-51
2023/01/25 01:39:33;;;;;;;12.68;5.57;;;;;;;15.95;59.97;99559.66;2061825;28;20081;-52
2023/01/25 01:40:34;;;;;;;19.52;6.38;;;;;;;15.95;59.98;99555.13;2060660;28;20050;-51
2023/01/25 01:41:36;;;;;;;;;;;;;;;15.81;60.16;99545.91;2062837;28;20645;-52
2023/01/25 01:42:51;;;;;;;;;;;;;;;15.73;60.54;99545.88;2066577;28;20575;-51
2023/01/25 01:43:53;;;;;;;15.18;5.40;;;;;;;15.77;60.35;99547.22;2069478;28;19925;-51
2023/01/25 01:44:54;;;;;;;16.20;6.35;;;;;;;15.84;60.37;99548.25;2070183;28;20046;-51
2023/01/25 01:45:58;;;;;;;17.20;7.95;;;;;;;15.88;60.09;99545.22;2070766;28;20045;-48
2023/01/25 01:46:59;;;;;;;9.63;5.53;;;;;;;15.88;60.12;99545.22;2063924;28;20077;-49
2023/01/25 01:48:00;;;;;;;;;;;;;;;15.75;60.22;99543.03;2055715;28;20964;-52
2023/01/25 01:49:05;;;;;;;10.98;4.43;;;;;;;15.79;60.31;99545.22;2051686;28;19936;-51
2023/01/25 01:50:23;;;;;;;15.25;5.68;;;;;;;15.79;60.25;99537.19;2063602;28;20107;-53
2023/01/25 01:51:35;;;;;;;15.48;6.03;;;;;;;15.81;60.19;99537.88;2059624;28;20046;-49
2023/01/25 01:52:37;;;;;;;;;;;;;;;15.69;60.50;99539.19;2062581;28;20073;-54
2023/01/25 01:53:41;;;;;;;12.48;6.25;;;;;;;15.74;60.32;99542.22;2061256;28;19925;-54
2023/01/25 01:54:49;;;;;;;14.13;5.85;;;;;;;15.77;60.26;99533.84;2058207;28;20046;-51
2023/01/25 01:55:52;;;;;;;14.13;7.50;;;;;;;15.79;60.34;99539.03;2063014;28;20058;-49
2023/01/25 01:56:58;;;;;;;14.30;6.82;;;;;;;15.79;60.06;99525.66;2062826;28;20050;-49
2023/01/25 01:57:59;;;;;;;17.58;5.95;;;;;;;15.79;60.08;99534.50;2062094;28;20053;-53
2023/01/25 01:59:03;;;;;;;17.05;7.22;;;;;;;15.80;60.03;99533.53;2062141;28;20471;-53
2023/01/25 02:00:09;;;;;;;13.07;5.82;;;;;;;15.80;59.96;99525.50;2064677;28;20057;-53
2023/01/25 02:01:11;;;;;;;20.13;7.72;;;;;;;15.78;60.16;99526.66;2062552;28;20042;-50
2023/01/25 02:02:13;;;;;;;15.45;5.95;;;;;;;15.79;60.01;99525.66;2064358;28;20042;-48
2023/01/25 02:03:16;;;;;;;10.95;5.63;;;;;;;15.79;60.09;99531.84;2062612;28;20056;-49
2023/01/25 02:04:20;;;;;;;16.95;6.45;;;;;;;15.79;59.95;99526.47;2063300;28;20072;-49
2023/01/25 02:05:26;;;;;;;15.00;6.93;;;;;;;15.76;60.10;99526.81;2047058;28;20147;-50
2023/01/25 02:06:35;;;;;;;11.40;5.57;;;;;;;15.74;60.27;99528.84;2061409;28;20060;-48
2023/01/25 02:07:37;;;;;;;15.48;6.07;;;;;;;15.74;60.27;99523.50;2062124;28;20046;-48
2023/01/25 02:08:42;;;;;;;11.98;6.32;;;;;;;15.75;60.14;99525.16;2062985;28;20065;-49
2023/01/25 02:09:43;;;;;;;14.45;5.30;;;;;;;15.70;60.22;99522.13;2061452;28;20073;-48
2023/01/25 02:10:47;;;;;;;13.57;6.35;;;;;;;15.69;60.34;99523.13;2062096;28;20053;-50
2023/01/25 02:11:50;;;;;;;10.27;5.45;;;;;;;15.69;60.41;99523.13;2061204;28;20123;-50
2023/01/25 02:12:54;;;;;;;10.73;5.80;;;;;;;15.67;60.19;99522.41;2059037;28;20077;-50
2023/01/25 02:13:57;;;;;;;13.82;6.45;;;;;;;15.69;60.29;99525.81;2061144;28;20049;-48
2023/01/25 02:14:58;;;;;;;12.85;5.75;;;;;;;15.68;60.17;99520.56;2061269;28;20397;-51
2023/01/25 02:15:59;;;;;;;13.63;6.35;;;;;;;15.67;60.32;99518.91;2061743;28;20108;-47
2023/01/25 02:17:01;;;;;;;;;;;;;;;15.56;60.54;99518.22;2053797;28;25131;-48
2023/01/25 02:18:02;;;;;;;;;;;;;;;15.44;60.80;99521.34;2062720;28;19929;-50
2023/01/25 02:19:05;;;;;;;11.95;5.57;;;;;;;15.49;60.81;99511.00;2061591;28;19929;-49
2023/01/25 02:20:10;;;;;;;11.80;6.68;;;;;;;15.55;60.45;99511.19;2053703;28;20058;-49
2023/01/25 02:21:11;;;;;;;11.18;5.15;;;;;;;15.59;60.51;99512.53;2062758;28;20657;-49
2023/01/25 02:22:19;;;;;;;14.43;5.53;;;;;;;15.63;60.30;99515.75;2061529;28;20112;-49
2023/01/25 02:23:29;;;;;;;9.57;5.25;;;;;;;15.61;60.24;99510.53;2064991;28;20053;-50
2023/01/25 02:24:33;;;;;;;14.93;5.43;;;;;;;15.59;60.36;99503.69;2063271;28;20134;-50
2023/01/25 02:25:36;;;;;;;11.65;5.80;;;;;;;15.56;60.28;99504.00;2063246;28;20418;-50
2023/01/25 02:26:38;;;;;;;12.85;5.85;;;;;;;15.55;60.66;99505.84;2066130;28;20073;-49
2023/01/25 02:27:45;;;;;;;9.90;5.00;;;;;;;15.57;60.35;99503.84;2061744;28;20732;-49
2023/01/25 02:28:49;;;;;;;13.48;5.95;;;;;;;15.57;60.34;99503.00;2062800;28;20053;-49
2023/01/25 02:29:51;;;;;;;12.25;6.20;;;;;;;15.55;60.30;99497.81;2060135;28;20079;-48
2023/01/25 02:30:52;;;;;;;15.50;7.22;;;;;;;15.54;60.39;99495.31;2052730;28;20041;-49
2023/01/25 02:31:59;;;;;;;;;;;;;;;15.39;60.59;99495.94;2060392;28;20138;-50
2023/01/25 02:33:00;;;;;;;9.50;5.35;;;;;;;15.44;60.63;99503.47;2063008;28;20555;-50
2023/01/25 02:34:01;;;;;;;;;;;;;;;15.33;60.85;99498.41;2063579;28;20107;-48
2023/01/25 02:35:02;;;;;;;13.00;4.88;;;;;;;15.38;60.98;99501.44;2055323;28;20339;-50
2023/01/25 02:36:16;;;;;;;;;;;;;;;15.29;60.90;99497.88;2061961;28;20053;-49
2023/01/25 02:37:17;;;;;;;13.43;5.78;;;;;;;15.35;60.96;99483.91;2060648;28;20002;-52
2023/01/25 02:38:20;;;;;;;;;;;;;;;15.28;61.04;99492.72;2061786;28;20057;-49
2023/01/25 02:39:24;;;;;;;11.52;5.50;;;;;;;15.33;60.82;99488.56;2061668;28;19933;-49
2023/01/25 02:40:26;;;;;;;13.32;5.95;;;;;;;15.40;60.57;99486.91;2060700;28;20507;-48
2023/01/25 02:41:32;;;;;;;8.20;4.50;;;;;;;15.44;60.53;99491.94;2068818;28;20053;-49
2023/01/25 02:42:34;;;;;;;13.70;5.55;;;;;;;15.43;60.48;99488.41;2063496;28;20054;-50
2023/01/25 02:43:36;;;;;;;10.65;5.40;;;;;;;15.41;60.47;99483.25;2061622;28;20621;-48
2023/01/25 02:44:38;;;;;;;9.82;4.35;;;;;;;15.43;60.54;99485.75;2062244;28;20053;-50
2023/01/25 02:45:39;;;;;;;12.00;4.68;;;;;;;15.39;60.48;99479.88;2063893;28;20443;-49
2023/01/25 02:46:41;;;;;;;;;;;;;;;15.31;61.02;99482.53;2061375;28;20080;-50
2023/01/25 02:47:42;;;;;;;13.68;5.63;;;;;;;15.32;60.67;99484.22;2064193;28;19991;-53
2023/01/25 02:48:43;;;;;;;;;;;;;;;15.24;60.94;99484.19;2064743;28;20062;-53
2023/01/25 02:49:44;;;;;;;10.13;4.65;;;;;;;15.26;60.83;99467.97;2062816;28;19929;-51
2023/01/25 02:50:45;;;;;;;;;;;;;;;15.19;61.18;99484.66;2068454;28;20058;-53
2023/01/25 02:51:48;;;;;;;13.32;4.80;;;;;;;15.27;60.94;99473.19;2063368;28;19999;-53
2023/01/25 02:52:50;;;;;;;14.93;6.20;;;;;;;15.32;60.68;99478.00;2061698;28;20054;-55
2023/01/25 02:53:51;;;;;;;13.40;4.55;;;;;;;15.33;60.72;99477.88;2045914;28;20049;-51
2023/01/25 02:54:52;;;;;;;;;;;;;;;15.22;61.00;99480.84;2064910;28;20127;-47
2023/01/25 02:55:53;;;;;;;10.63;5.10;;;;;;;15.26;60.88;99470.66;2061267;28;19971;-50
2023/01/25 02:56:56;;;;;;;;;;;;;;;15.14;61.04;99481.63;2065439;28;20096;-52
2023/01/25 02:57:56;;;;;;;12.60;5.50;;;;;;;15.22;61.14;99477.34;2061064;28;22613;-53
2023/01/25 02:58:58;;;;;;;;;;;;;;;15.10;61.16;99472.28;2062467;28;20050;-50
2023/01/25 02:59:58;;;;;;;12.65;6.05;;;;;;;15.19;61.08;99473.16;2058169;28;19925;-54
2023/01/25 03:01:00;;;;;;;;;;;;;;;15.13;61.10;99474.63;2063734;28;20103;-51
2023/01/25 03:02:01;;;;;;;8.57;4.57;;;;;;;15.19;61.03;99476.66;2062409;28;20297;-54
2023/01/25 03:03:02;;;;;;;;;;;;;;;15.11;61.13;99467.75;2063839;28;20120;-49
2023/01/25 03:04:04;;;;;;;11.95;5.75;;;;;;;15.18;60.92;99468.78;2061600;28;19929;-51
2023/01/25 03:05:06;;;;;;;14.20;5.65;;;;;;;15.23;60.88;99460.28;2064480;28;20054;-50
2023/01/25 03:06:07;;;;;;;10.57;5.82;;;;;;;15.24;60.81;99459.28;2064766;28;20065;-52
2023/01/25 03:07:09;;;;;;;13.82;5.28;;;;;;;15.26;60.77;99465.31;2057951;28;20056;-53
2023/01/25 03:08:09;;;;;;;15.30;6.10;;;;;;;15.26;60.69;99458.13;2062219;28;20576;-50
2023/01/25 03:09:11;;;;;;;;;;;;;;;15.14;60.99;99456.75;2069186;28;20056;-50
2023/01/25 03:10:12;;;;;;;9.60;4.43;;;;;;;15.18;60.82;99463.44;2063542;28;19972;-50
2023/01/25 03:11:13;;;;;;;;;;;;;;;15.09;60.97;99459.06;2061631;28;20061;-53
2023/01/25 03:12:15;;;;;;;10.52;5.78;;;;;;;15.14;60.99;99465.59;2064105;28;19929;-51
2023/01/25 03:13:17;;;;;;;11.07;5.53;;;;;;;15.19;60.99;99452.59;2066674;28;20092;-53
2023/01/25 03:14:18;;;;;;;10.15;5.05;;;;;;;15.22;60.82;99446.09;2059487;28;20107;-49
2023/01/25 03:15:19;;;;;;;;;;;;;;;15.08;61.05;99444.03;2064709;28;20050;-49
2023/01/25 03:16:20;;;;;;;12.27;5.32;;;;;;;15.11;61.14;99444.53;2062276;28;19999;-49
2023/01/25 03:17:21;;;;;;;;;;;;;;;15.03;61.25;99446.34;2066470;28;20937;-56
2023/01/25 03:18:22;;;;;;;10.70;4.53;;;;;;;15.08;60.94;99442.19;2064586;28;19935;-51
2023/01/25 03:19:24;;;;;;;;;;;;;;;15.04;61.21;99442.66;2064549;28;20045;-49
2023/01/25 03:20:24;;;;;;;7.25;4.78;;;;;;;15.07;61.18;99445.03;2063212;28;19925;-48
2023/01/25 03:21:26;;;;;;;;;;;;;;;15.00;61.26;99452.03;2063585;28;20100;-48
2023/01/25 03:22:27;;;;;;;8.15;5.15;;;;;;;15.04;61.17;99448.84;2060369;28;20532;-51
2023/01/25 03:23:28;;;;;;;;;;;;;;;14.99;61.32;99443.19;2062958;28;20171;-49
2023/01/25 03:24:29;;;;;;;12.80;4.70;;;;;;;15.03;61.25;99443.69;2059266;28;19929;-49
2023/01/25 03:25:30;;;;;;;;;;;;;;;14.96;61.23;99440.81;2064730;28;20448;-52
2023/01/25 03:27:09;;;;;;;11.88;5.20;;;;;;;15.03;61.14;99435.66;2061983;28;20506;-50
2023/01/25 03:27:55;;;;;;;12.48;5.53;;;;;;;15.04;61.03;99431.97;2055908;28;20054;-49
2023/01/25 03:28:56;;;;;;;10.77;5.15;;;;;;;15.09;60.94;99429.66;2061236;28;20049;-49
2023/01/25 03:29:57;;;;;;;;;;;;;;;14.98;61.11;99428.13;2068089;28;20049;-48
2023/01/25 03:30:58;;;;;;;8.95;4.82;;;;;;;15.03;61.25;99425.81;2068202;28;19925;-52
2023/01/25 03:31:59;;;;;;;;;;;;;;;14.95;61.21;99426.59;2067910;28;20050;-53
2023/01/25 03:33:00;;;;;;;10.68;4.20;;;;;;;14.98;61.28;99426.28;2068452;28;20652;-51
2023/01/25 03:34:01;;;;;;;;;;;;;;;14.90;61.32;99426.25;2069319;28;20119;-51
2023/01/25 03:35:03;;;;;;;7.03;4.15;;;;;;;14.96;61.03;99425.63;2069454;28;19994;-51
2023/01/25 03:36:06;;;;;;;11.07;4.70;;;;;;;15.01;61.10;99421.63;2068755;28;20562;-48
2023/01/25 03:37:07;;;;;;;9.38;4.60;;;;;;;15.05;60.98;99423.00;2066885;28;20098;-53
2023/01/25 03:38:08;;;;;;;;;;;;;;;14.96;61.19;99422.97;2070073;28;20049;-48
2023/01/25 03:39:09;;;;;;;11.05;4.63;;;;;;;14.96;61.23;99420.28;2066621;28;19930;-53
2023/01/25 03:40:11;;;;;;;;;;;;;;;14.88;61.38;99425.59;2066858;28;20092;-49
2023/01/25 03:41:12;;;;;;;9.35;4.82;;;;;;;14.94;61.14;99421.44;2068453;28;19968;-49
2023/01/25 03:42:14;;;;;;;9.73;4.65;;;;;;;15.00;61.02;99418.13;2068299;28;20096;-53
2023/01/25 03:43:17;;;;;;;8.52;4.65;;;;;;;15.02;61.07;99420.66;2068853;28;20107;-51
2023/01/25 03:44:18;;;;;;;9.80;4.47;;;;;;;15.04;60.99;99416.78;2058311;28;20068;-50
2023/01/25 03:45:19;;;;;;;11.80;5.20;;;;;;;15.07;60.65;99411.16;2065527;28;20098;-49
2023/01/25 03:46:20;;;;;;;;;;;;;;;14.93;60.98;99404.59;2067488;28;20107;-50
2023/01/25 03:47:21;;;;;;;7.10;3.75;;;;;;;14.96;61.07;99404.25;2068038;28;19971;-51
2023/01/25 03:48:23;;;;;;;;;;;;;;;14.85;61.39;99403.69;2067666;28;20451;-52
2023/01/25 03:49:23;;;;;;;10.77;4.40;;;;;;;14.89;61.39;99403.22;2068078;28;19929;-53
2023/01/25 03:50:25;;;;;;;;;;;;;;;14.79;61.41;99407.00;2068217;28;20115;-51
2023/01/25 03:51:25;;;;;;;9.65;4.97;;;;;;;14.86;61.42;99402.72;2069393;28;20452;-52
2023/01/25 03:52:46;;;;;;;;;;;;;;;14.80;61.27;99400.69;2067962;28;20111;-49
2023/01/25 03:53:46;;;;;;;7.90;4.28;;;;;;;14.84;61.54;99396.69;2067404;28;19921;-49
2023/01/25 03:54:48;;;;;;;;;;;;;;;14.76;61.64;99410.81;2069839;28;20060;-50
2023/01/25 03:55:48;;;;;;;11.05;4.95;;;;;;;14.82;61.57;99401.34;2065608;28;19921;-53
2023/01/25 03:56:50;;;;;;;;;;;;;;;14.73;61.59;99390.63;2067333;28;20120;-53
2023/01/25 03:57:50;;;;;;;10.75;4.30;;;;;;;14.81;61.49;99395.16;2066434;28;19994;-52
2023/01/25 03:58:53;;;;;;;;;;;;;;;14.74;61.65;99400.31;2069931;28;20680;-48
2023/01/25 03:59:54;;;;;;;6.32;3.65;;;;;;;14.78;61.57;99392.81;2065283;28;20092;-51
2023/01/25 04:00:56;;;;;;;;;;;;;;;14.72;61.78;99388.13;2054313;28;20806;-54
2023/01/25 04:01:57;;;;;;;6.43;3.50;;;;;;;14.80;61.43;99390.84;2059132;28;19929;-54
2023/01/25 04:02:58;;;;;;;;;;;;;;;14.73;61.59;99387.13;2062845;28;20050;-49
2023/01/25 04:03:59;;;;;;;10.70;4.60;;;;;;;14.81;61.44;99392.50;2052495;28;19974;-53
2023/01/25 04:05:00;;;;;;;;;;;;;;;14.72;61.43;99386.28;2062828;28;20123;-52
2023/01/25 04:06:02;;;;;;;7.18;4.05;;;;;;;14.77;61.38;99383.16;2057567;28;20414;-52
2023/01/25 04:07:04;;;;;;;9.48;4.28;;;;;;;14.83;61.31;99393.19;2063400;28;20081;-52
2023/01/25 04:08:05;;;;;;;14.60;4.97;;;;;;;14.87;61.17;99385.69;2063451;28;20053;-53
2023/01/25 04:09:06;;;;;;;;;;;;;;;14.75;61.41;99383.28;2058480;28;20633;-54
2023/01/25 04:10:08;;;;;;;10.40;3.47;;;;;;;14.79;61.15;99391.81;2054400;28;20534;-53
2023/01/25 04:11:10;;;;;;;7.28;4.32;;;;;;;14.82;61.25;99386.19;2065661;28;20071;-53
2023/01/25 04:12:11;;;;;;;10.13;4.13;;;;;;;14.84;61.28;99383.31;2057245;28;20054;-51
2023/01/25 04:13:12;;;;;;;;;;;;;;;14.73;61.58;99381.78;2064974;28;20166;-50
2023/01/25 04:14:14;;;;;;;11.63;5.13;;;;;;;14.78;61.15;99382.13;2062664;28;19925;-54
2023/01/25 04:15:16;;;;;;;6.95;4.05;;;;;;;14.78;61.29;99384.81;2058645;28;20099;-51
2023/01/25 04:16:18;;;;;;;11.15;4.25;;;;;;;14.81;61.15;99384.47;2058751;28;20722;-52
2023/01/25 04:17:18;;;;;;;10.82;4.78;;;;;;;14.82;61.21;99379.97;2052282;28;20045;-48
2023/01/25 04:18:20;;;;;;;;;;;;;;;14.69;61.45;99375.09;2061606;28;20116;-51
2023/01/25 04:19:21;;;;;;;11.57;4.72;;;;;;;14.70;61.56;99376.75;2061864;28;20017;-55
2023/01/25 04:20:22;;;;;;;;;;;;;;;14.64;61.54;99372.06;2065659;28;20068;-48
2023/01/25 04:21:23;;;;;;;10.52;4.18;;;;;;;14.71;61.45;99367.78;2061499;28;19980;-54
2023/01/25 04:22:24;;;;;;;;;;;;;;;14.65;61.46;99373.72;2060766;28;20061;-52
2023/01/25 04:23:26;;;;;;;8.52;4.07;;;;;;;14.69;61.46;99369.75;2062875;28;19950;-53
2023/01/25 04:24:27;;;;;;;10.05;4.25;;;;;;;14.74;61.31;99370.94;2058659;28;20080;-52
2023/01/25 04:25:28;;;;;;;7.95;4.20;;;;;;;14.76;61.14;99365.44;2057517;28;20135;-51
2023/01/25 04:26:29;;;;;;;;;;;;;;;14.65;61.48;99363.88;2056081;28;20053;-53
2023/01/25 04:27:30;;;;;;;11.55;5.70;;;;;;;14.69;61.41;99365.25;2060865;28;19986;-54
2023/01/25 04:28:32;;;;;;;;;;;;;;;14.63;61.61;99362.41;2056736;28;20080;-51
2023/01/25 04:29:34;;;;;;;11.52;4.38;;;;;;;14.67;61.61;99366.41;2063019;28;19983;-53
2023/01/25 04:30:36;;;;;;;8.00;4.63;;;;;;;14.68;61.38;99360.06;2061428;28;20057;-48
2023/01/25 04:31:37;;;;;;;10.50;5.07;;;;;;;14.71;61.36;99355.25;2053346;28;21026;-50
2023/01/25 04:32:38;;;;;;;;;;;;;;;14.60;61.65;99352.88;2062843;28;20057;-52
2023/01/25 04:33:39;;;;;;;9.70;4.70;;;;;;;14.63;61.74;99355.22;2060758;28;19956;-52
2023/01/25 04:34:40;;;;;;;;;;;;;;;14.56;61.71;99350.66;2062588;28;20147;-50
2023/01/25 04:35:42;;;;;;;6.28;3.33;;;;;;;14.61;61.66;99351.03;2063714;28;19933;-49
2023/01/25 04:36:44;;;;;;;10.48;4.85;;;;;;;14.65;61.41;99353.19;2062710;28;20053;-54
2023/01/25 04:37:52;;;;;;;10.25;3.70;;;;;;;14.68;61.25;99352.91;2062929;28;20060;-53
2023/01/25 04:38:53;;;;;;;9.95;4.35;;;;;;;14.71;61.45;99349.09;2066395;28;20128;-50
2023/01/25 04:39:54;;;;;;;10.25;4.10;;;;;;;14.71;61.38;99347.25;2060358;28;20154;-54
2023/01/25 04:40:55;;;;;;;;;;;;;;;14.60;61.45;99350.19;2059648;28;20140;-51
2023/01/25 04:41:56;;;;;;;9.38;4.18;;;;;;;14.64;61.45;99345.38;2059320;28;19925;-52
2023/01/25 04:42:58;;;;;;;;;;;;;;;14.52;61.62;99340.31;2060039;28;22073;-52
2023/01/25 04:43:59;;;;;;;10.32;4.53;;;;;;;14.60;61.62;99350.19;2061195;28;19929;-52
2023/01/25 04:45:02;;;;;;;;;;;;;;;14.47;61.71;99353.25;2058798;28;20626;-53
2023/01/25 04:46:03;;;;;;;8.02;3.65;;;;;;;14.56;61.49;99348.81;2061315;28;19925;-51
2023/01/25 04:47:04;;;;;;;;;;;;;;;14.47;61.72;99345.25;2060520;28;20808;-51
2023/01/25 04:48:08;;;;;;;5.65;3.22;;;;;;;14.56;61.52;99348.00;2058563;28;21769;-51
2023/01/25 04:49:10;;;;;;;6.57;3.67;;;;;;;14.63;61.22;99343.72;2062251;28;20056;-53
2023/01/25 04:50:11;;;;;;;6.68;3.50;;;;;;;14.66;61.19;99338.03;2062012;28;20053;-53
2023/01/25 04:51:13;;;;;;;;;;;;;;;14.57;61.32;99344.31;2059053;28;20054;-51
2023/01/25 04:52:13;;;;;;;8.73;4.60;;;;;;;14.58;61.60;99338.00;2061324;28;20022;-51
2023/01/25 04:53:15;;;;;;;;;;;;;;;14.48;61.66;99328.22;2061322;28;20100;-48
2023/01/25 04:54:15;;;;;;;8.70;3.85;;;;;;;14.56;61.65;99337.31;2061157;28;19995;-51
2023/01/25 04:55:17;;;;;;;;;;;;;;;14.45;61.74;99333.06;2065239;28;20218;-51
2023/01/25 04:56:18;;;;;;;5.72;3.47;;;;;;;14.50;61.79;99328.91;2061224;28;22364;-53
2023/01/25 04:57:19;;;;;;;;;;;;;;;14.46;61.73;99329.41;2060750;28;20057;-50
2023/01/25 04:58:20;;;;;;;8.95;3.60;;;;;;;14.50;61.76;99334.25;2062861;28;19925;-52
2023/01/25 04:59:22;;;;;;;8.75;4.05;;;;;;;14.54;61.45;99334.81;2062076;28;20053;-53